Aviation Digital Data Service (ADDS)

Output produced by METARs form (0609 UTC 28 September 2022)
found at http://www.aviationweather.gov/metar/data/
 
VTUK 280600Z 29010KT 9000 FEW025 BKN100 26/24 Q1001 NOSIG
VTUK 280500Z 29010KT 8000 -RA SCT025 BKN080 26/25 Q1003 RERA NOSIG
VTUK 280400Z 29005KT 250V310 5000 RA SCT025 OVC080 25/25 Q1004 NOSIG
VTUK 280300Z 29006KT 260V320 8000 -RA FEW025 OVC080 26/24 Q1004 NOSIG
VTUK 280200Z 28006KT 7000 -RA SCT025 OVC080 25/24 Q1004 NOSIG
VTUK 280100Z 30005KT 220V320 8000 -RA FEW025 BKN080 25/24 Q1004 NOSIG
VTUK 280000Z 29005KT 8000 FEW025 BKN080 25/24 Q1004 NOSIG
VTUK 272300Z 29005KT 8000 FEW025 BKN080 25/24 Q1003 NOSIG
VTUK 272200Z 29005KT 8000 FEW025 BKN080 25/24 Q1003 NOSIG
VTUK 272100Z 30006KT 270V330 8000 FEW025 BKN080 26/24 Q1003 NOSIG
VTUK 272000Z 29007KT 8000 FEW025 SCT080 26/24 Q1004 NOSIG
VTUK 271900Z 29005KT 9000 FEW025 SCT080 25/24 Q1004 NOSIG
VTUK 271800Z 30004KT 9000 FEW025 SCT080 26/24 Q1005 NOSIG
VTUK 271700Z 26002KT 9000 FEW025 SCT080 26/25 Q1006 NOSIG
VTUK 271600Z 27003KT 9000 FEW025 SCT080 26/25 Q1007 NOSIG
VTUK 271500Z 30003KT 9000 FEW025 SCT080 26/25 Q1007 NOSIG
VTUK 271400Z 28002KT 9000 FEW025 SCT080 27/25 Q1007 NOSIG
VTUK 271300Z VRB02KT 9999 FEW025 SCT080 28/23 Q1007 NOSIG
VTUK 271200Z 03002KT 9999 FEW025 SCT080 28/24 Q1006 NOSIG
VTUK 271100Z 03003KT 360V070 9999 FEW025 SCT080 29/23 Q1005 NOSIG
VTUK 271000Z 01003KT 340V050 9999 FEW025 BKN080 30/22 Q1005 NOSIG
VTUK 270900Z 36003KT 320V040 9999 FEW025 BKN080 31/23 Q1005 NOSIG
VTUK 270800Z 02004KT 340V070 9999 SCT025 BKN080 31/22 Q1005 NOSIG
VTUK 270700Z 35006KT 310V030 9999 SCT025 BKN080 31/23 Q1006 NOSIG
VTUK 270600Z VRB04KT 9999 SCT025 BKN080 30/22 Q1007 NOSIG
TAF VTUK 280500Z 2806/2906 28007KT 7000 SCT025 BKN080 
     TEMPO 2807/2815 VRB15KT 3500 TSRA FEW015CB BKN020 BKN080 
     TEMPO 2816/2824 VRB15KT 3500 TSRA FEW015CB BKN020 BKN080 
     TEMPO 2900/2906 VRB15KT 3500 RA SCT010 SCT020 BKN080